Time;durP1;ratioP1;P1;durP2;ratioP2;P2;SDS_P1;SDS_P2;PMS_P1;PMS_P2;Temp;Humidity;BMP_temperature;BMP_pressure;BME280_temperature;BME280_humidity;BME280_pressure;Samples;Min_cycle;Max_cycle;Signal;HPM_P1;HPM_P2
2021/10/25 00:01:52;;;;;;;;;;;18.80;85.30;;;;;;5093364;28;19916;-75
2021/10/25 00:04:19;;;;;;;;;;;18.70;87.10;;;;;;5092065;28;19951;-75
2021/10/25 00:06:46;;;;;;;;;;;18.90;88.00;;;;;;5093044;28;20259;-74
2021/10/25 00:09:12;;;;;;;;;;;19.00;88.60;;;;;;5093307;28;19981;-73
2021/10/25 00:11:39;;;;;;;;;;;19.10;86.00;;;;;;5087918;28;20389;-72
2021/10/25 00:14:05;;;;;;;;;;;19.20;86.50;;;;;;5054482;28;19908;-73
2021/10/25 00:16:32;;;;;;;;;;;19.20;83.00;;;;;;5072537;28;19924;-74
2021/10/25 00:18:59;;;;;;;;;;;19.20;81.00;;;;;;5072878;28;19916;-74
2021/10/25 00:21:26;;;;;;;;;;;19.20;83.10;;;;;;5072621;28;19960;-71
2021/10/25 00:23:52;;;;;;;;;;;19.20;82.20;;;;;;5072413;28;20357;-73
2021/10/25 00:26:19;;;;;;;;;;;19.20;84.90;;;;;;5072297;28;19971;-72
2021/10/25 00:28:45;;;;;;;;;;;19.30;84.30;;;;;;5072786;28;19908;-73
2021/10/25 00:31:12;;;;;;;;;;;19.40;83.00;;;;;;5068350;28;19913;-73
2021/10/25 00:33:39;;;;;;;;;;;19.60;83.80;;;;;;5051153;28;20381;-74
2021/10/25 00:36:06;;;;;;;;;;;19.50;82.20;;;;;;5066350;28;20416;-74
2021/10/25 00:38:33;;;;;;;;;;;19.70;81.30;;;;;;5052211;28;19916;-74
2021/10/25 00:41:00;;;;;;;;;;;20.00;81.40;;;;;;5051813;28;19909;-73
2021/10/25 00:43:27;;;;;;;;;;;19.90;79.10;;;;;;5052240;28;19916;-74
2021/10/25 00:45:53;;;;;;;;;;;20.20;80.00;;;;;;5051217;28;20365;-71
2021/10/25 00:48:20;;;;;;;;;;;20.90;78.80;;;;;;5052174;28;19908;-73
2021/10/25 00:50:47;;;;;;;;;;;21.10;77.00;;;;;;5052346;28;19908;-74
2021/10/25 00:53:14;;;;;;;;;;;21.30;75.60;;;;;;5052328;28;19909;-72
2021/10/25 00:55:41;;;;;;;;;;;21.40;75.80;;;;;;5037198;28;20358;-75
2021/10/25 00:58:09;;;;;;;;;;;21.50;73.30;;;;;;5072708;28;19935;-71
2021/10/25 01:00:36;;;;;;;;;;;21.80;74.10;;;;;;5072515;28;19912;-70
2021/10/25 01:03:04;;;;;;;;;;;21.90;72.80;;;;;;5104849;28;20363;-72
2021/10/25 01:05:33;;;;;;;;;;;21.80;70.70;;;;;;5079993;28;20023;-72
2021/10/25 01:08:03;;;;;;;;;;;21.70;72.30;;;;;;5099455;28;20300;-72
2021/10/25 01:10:30;;;;;;;;;;;21.60;72.00;;;;;;5094781;28;19913;-74
2021/10/25 01:12:57;;;;;;;;;;;21.80;70.90;;;;;;5092329;28;20445;-70
2021/10/25 01:15:26;;;;;;;;;;;21.60;72.60;;;;;;5094424;28;20366;-73
2021/10/25 01:17:57;;;;;;;;;;;21.80;71.20;;;;;;5096247;28;19909;-71
2021/10/25 01:20:25;;;;;;;;;;;21.90;71.50;;;;;;5096473;28;19999;-71
2021/10/25 01:22:53;;;;;;;;;;;22.10;69.70;;;;;;5096398;28;19915;-71
2021/10/25 01:25:19;;;;;;;;;;;21.80;68.30;;;;;;5096144;28;19914;-72
2021/10/25 01:27:50;;;;;;;;;;;21.60;70.20;;;;;;5096118;28;19919;-74
2021/10/25 01:30:19;;;;;;;;;;;21.60;69.50;;;;;;5096304;28;19909;-72
2021/10/25 01:32:50;;;;;;;;;;;21.50;70.40;;;;;;5095867;28;19908;-75
2021/10/25 01:35:18;;;;;;;;;;;21.20;70.00;;;;;;5095957;28;19908;-72
2021/10/25 01:37:45;;;;;;;;;;;21.00;71.00;;;;;;5095885;28;19915;-74
2021/10/25 01:40:14;;;;;;;;;;;21.00;70.50;;;;;;5096238;28;19995;-74
2021/10/25 01:42:41;;;;;;;;;;;21.00;69.30;;;;;;5096218;28;19915;-75
2021/10/25 01:45:08;;;;;;;;;;;21.00;68.80;;;;;;5095502;28;19908;-75
2021/10/25 01:47:35;;;;;;;;;;;20.90;68.50;;;;;;5095725;28;19943;-75
2021/10/25 01:50:02;;;;;;;;;;;20.90;70.20;;;;;;5096078;28;19990;-75
2021/10/25 01:52:29;;;;;;;;;;;21.00;68.80;;;;;;5095995;28;20016;-71
2021/10/25 01:54:56;;;;;;;;;;;20.90;68.80;;;;;;5095868;28;19931;-72
2021/10/25 01:57:23;;;;;;;;;;;21.00;69.30;;;;;;5095648;28;20267;-74
2021/10/25 01:59:49;;;;;;;;;;;21.10;67.80;;;;;;5096032;28;20049;-75
2021/10/25 02:02:16;;;;;;;;;;;20.90;66.00;;;;;;5096159;28;19947;-74
2021/10/25 02:04:43;;;;;;;;;;;20.80;68.00;;;;;;5080641;28;20283;-74
2021/10/25 02:07:10;;;;;;;;;;;20.90;68.10;;;;;;5098382;28;19917;-75
2021/10/25 02:09:36;;;;;;;;;;;21.00;66.80;;;;;;5098219;28;19908;-76
2021/10/25 02:12:03;;;;;;;;;;;21.10;65.40;;;;;;5098535;28;20007;-74
2021/10/25 02:14:30;;;;;;;;;;;21.10;65.90;;;;;;5098621;28;19961;-74
2021/10/25 02:16:56;;;;;;;;;;;21.00;63.60;;;;;;5097657;28;19915;-75
2021/10/25 02:19:23;;;;;;;;;;;20.90;67.00;;;;;;5096014;28;19908;-75
2021/10/25 02:21:50;;;;;;;;;;;21.10;66.30;;;;;;5096111;28;20286;-76
2021/10/25 02:24:19;;;;;;;;;;;21.10;66.40;;;;;;5096116;28;20038;-75
2021/10/25 02:26:46;;;;;;;;;;;21.00;65.10;;;;;;5095394;28;19920;-71
2021/10/25 02:29:12;;;;;;;;;;;20.90;63.80;;;;;;5095591;28;19915;-74
2021/10/25 02:31:39;;;;;;;;;;;20.90;69.80;;;;;;5095734;28;19916;-71
2021/10/25 02:34:06;;;;;;;;;;;20.90;86.10;;;;;;5095290;28;19915;-73
2021/10/25 02:36:35;;;;;;;;;;;21.00;85.00;;;;;;5093840;28;20383;-71
2021/10/25 02:39:04;;;;;;;;;;;20.90;90.40;;;;;;5095995;28;20286;-71
2021/10/25 02:41:31;;;;;;;;;;;20.80;92.50;;;;;;5095966;28;19908;-71
2021/10/25 02:43:57;;;;;;;;;;;20.70;94.10;;;;;;5083325;28;19912;-72
2021/10/25 02:46:24;;;;;;;;;;;20.70;95.10;;;;;;5095906;28;19912;-74
2021/10/25 02:48:51;;;;;;;;;;;20.60;95.20;;;;;;5095678;28;19915;-73
2021/10/25 02:51:18;;;;;;;;;;;20.40;95.40;;;;;;5095410;28;19914;-75
2021/10/25 02:53:44;;;;;;;;;;;20.40;95.70;;;;;;5091607;28;19918;-74
2021/10/25 02:56:12;;;;;;;;;;;20.20;95.60;;;;;;5094100;28;19999;-74
2021/10/25 02:58:39;;;;;;;;;;;20.00;96.20;;;;;;5076587;28;19916;-73
2021/10/25 03:01:06;;;;;;;;;;;20.10;96.20;;;;;;5094739;28;19951;-75
2021/10/25 03:03:32;;;;;;;;;;;20.10;97.10;;;;;;5076351;28;20485;-74
2021/10/25 03:05:59;;;;;;;;;;;20.20;96.90;;;;;;5094291;28;19920;-72
2021/10/25 03:08:27;;;;;;;;;;;20.10;96.80;;;;;;5094983;28;19915;-72
2021/10/25 03:10:55;;;;;;;;;;;20.20;97.70;;;;;;5094833;28;19933;-73
2021/10/25 03:13:22;;;;;;;;;;;20.10;97.20;;;;;;5094253;28;20268;-72
2021/10/25 03:15:48;;;;;;;;;;;19.90;97.40;;;;;;5093777;28;20362;-71
2021/10/25 03:18:15;;;;;;;;;;;19.80;97.70;;;;;;5094206;28;19915;-71
2021/10/25 03:20:44;;;;;;;;;;;19.70;97.80;;;;;;5093825;28;19915;-72
2021/10/25 03:23:11;;;;;;;;;;;19.70;97.80;;;;;;5093802;28;20362;-74
2021/10/25 03:25:38;;;;;;;;;;;19.70;98.00;;;;;;5093769;28;19947;-75
2021/10/25 03:28:06;;;;;;;;;;;19.60;97.60;;;;;;5094501;28;19912;-75
2021/10/25 03:30:32;;;;;;;;;;;19.70;98.50;;;;;;5094226;28;19915;-74
2021/10/25 03:32:59;;;;;;;;;;;19.80;98.20;;;;;;5094214;28;20006;-74
2021/10/25 03:35:26;;;;;;;;;;;19.90;99.10;;;;;;5093607;28;20363;-72
2021/10/25 03:37:54;;;;;;;;;;;19.90;99.30;;;;;;5074976;28;19908;-75
2021/10/25 03:40:21;;;;;;;;;;;20.10;99.50;;;;;;5094374;28;19919;-75
2021/10/25 03:45:57;;;;;;;;;;;20.10;98.80;;;;;;5069430;28;19928;-75
2021/10/25 03:50:51;;;;;;;;;;;19.90;99.10;;;;;;5073508;28;19916;-74
2021/10/25 04:28:17;;;;;;;;;;;19.40;99.20;;;;;;5093133;28;20362;-75
2021/10/25 04:30:51;;;;;;;;;;;19.50;99.40;;;;;;5090697;28;19908;-74
2021/10/25 04:33:18;;;;;;;;;;;19.50;98.30;;;;;;5093059;28;19977;-75
2021/10/25 04:35:45;;;;;;;;;;;19.50;98.50;;;;;;5092843;28;19953;-73
2021/10/25 04:38:11;;;;;;;;;;;19.50;98.50;;;;;;5093677;28;19912;-75
2021/10/25 04:40:38;;;;;;;;;;;19.40;99.10;;;;;;5093227;28;19908;-73
2021/10/25 04:43:05;;;;;;;;;;;19.40;99.20;;;;;;5093147;28;19908;-71
2021/10/25 04:45:31;;;;;;;;;;;19.30;99.80;;;;;;5092236;28;19914;-72
2021/10/25 04:47:58;;;;;;;;;;;19.40;99.90;;;;;;5093132;28;20031;-73
2021/10/25 04:50:25;;;;;;;;;;;19.50;99.80;;;;;;5099715;28;20343;-72
2021/10/25 04:52:51;;;;;;;;;;;19.40;99.90;;;;;;5113837;28;19921;-76
2021/10/25 04:55:19;;;;;;;;;;;19.30;99.90;;;;;;5113143;28;19947;-75
2021/10/25 04:57:46;;;;;;;;;;;19.30;99.70;;;;;;5097768;28;19912;-75
2021/10/25 05:00:12;;;;;;;;;;;19.20;99.60;;;;;;5092630;28;19954;-75
2021/10/25 05:02:39;;;;;;;;;;;19.20;99.90;;;;;;5093005;28;20292;-75
2021/10/25 05:05:06;;;;;;;;;;;19.30;99.90;;;;;;5093089;28;20359;-76
2021/10/25 05:07:34;;;;;;;;;;;19.20;99.50;;;;;;5092180;28;20306;-75
2021/10/25 05:10:02;;;;;;;;;;;19.10;99.70;;;;;;5092508;28;20272;-75
2021/10/25 05:12:29;;;;;;;;;;;18.90;99.90;;;;;;5091821;28;20522;-76
2021/10/25 05:14:57;;;;;;;;;;;18.90;99.90;;;;;;5090651;28;20009;-75
2021/10/25 05:17:23;;;;;;;;;;;19.00;99.90;;;;;;5092588;28;20345;-76
2021/10/25 05:19:51;;;;;;;;;;;19.10;99.90;;;;;;5092176;28;19912;-76
2021/10/25 05:22:19;;;;;;;;;;;19.20;99.90;;;;;;5092415;28;20006;-75
2021/10/25 05:24:46;;;;;;;;;;;19.30;99.90;;;;;;5092242;28;19958;-76
2021/10/25 05:27:15;;;;;;;;;;;19.30;99.90;;;;;;5092084;28;20007;-73
2021/10/25 05:29:43;;;;;;;;;;;19.30;99.90;;;;;;5094511;28;20329;-76
2021/10/25 05:32:10;;;;;;;;;;;19.30;99.90;;;;;;5097138;28;20006;-74
2021/10/25 05:34:37;;;;;;;;;;;19.20;99.90;;;;;;5092140;28;19908;-72
2021/10/25 05:37:03;;;;;;;;;;;19.00;99.90;;;;;;5093678;28;20240;-74
2021/10/25 05:39:30;;;;;;;;;;;18.90;99.30;;;;;;5092238;28;19908;-74
2021/10/25 05:41:57;;;;;;;;;;;18.80;99.80;;;;;;5092802;28;19908;-76
2021/10/25 05:44:23;;;;;;;;;;;18.80;99.90;;;;;;5092608;28;19916;-73
2021/10/25 05:46:50;;;;;;;;;;;18.80;99.90;;;;;;5092073;28;19916;-71
2021/10/25 05:49:17;;;;;;;;;;;18.80;99.90;;;;;;5092719;28;19930;-73
2021/10/25 05:51:44;;;;;;;;;;;18.70;99.90;;;;;;5089418;28;19931;-72
2021/10/25 05:54:11;;;;;;;;;;;18.60;99.90;;;;;;5101711;28;19909;-75
2021/10/25 05:56:37;;;;;;;;;;;18.70;99.90;;;;;;5096745;28;19920;-74
2021/10/25 05:59:05;;;;;;;;;;;18.60;99.90;;;;;;5090120;28;19908;-72
2021/10/25 06:01:43;;;;;;;;;;;18.50;99.90;;;;;;5090652;28;20003;-69
2021/10/25 06:04:12;;;;;;;;;;;18.50;99.90;;;;;;5093355;28;19912;-71
2021/10/25 06:06:39;;;;;;;;;;;18.50;99.90;;;;;;5092989;28;20485;-73
2021/10/25 06:09:06;;;;;;;;;;;18.40;99.90;;;;;;5093710;28;20649;-72
2021/10/25 06:11:34;;;;;;;;;;;18.40;99.90;;;;;;5093426;28;19995;-71
2021/10/25 06:14:03;;;;;;;;;;;18.40;99.90;;;;;;5093125;28;19912;-72
2021/10/25 06:16:40;;;;;;;;;;;18.30;99.90;;;;;;5093022;28;19999;-73
2021/10/25 06:19:10;;;;;;;;;;;18.40;99.90;;;;;;5091777;28;19934;-71
2021/10/25 06:21:37;;;;;;;;;;;18.50;99.90;;;;;;5073484;28;19920;-73
2021/10/25 06:24:04;;;;;;;;;;;18.50;99.90;;;;;;5072854;28;19912;-73
2021/10/25 06:26:31;;;;;;;;;;;18.30;99.90;;;;;;5072795;28;19973;-71
2021/10/25 06:28:57;;;;;;;;;;;18.20;99.90;;;;;;5072763;28;19999;-71
2021/10/25 06:31:27;;;;;;;;;;;18.10;99.90;;;;;;5072725;28;19913;-71
2021/10/25 06:33:53;;;;;;;;;;;18.00;99.90;;;;;;5072261;28;19912;-70
2021/10/25 06:36:22;;;;;;;;;;;17.90;99.90;;;;;;5072231;28;19908;-73
2021/10/25 06:41:19;;;;;;;;;;;18.00;99.90;;;;;;5072644;28;19908;-71
2021/10/25 06:43:46;;;;;;;;;;;18.10;99.90;;;;;;5071928;28;19916;-73
2021/10/25 06:46:13;;;;;;;;;;;18.10;99.90;;;;;;5071512;28;20387;-71
2021/10/25 06:48:39;;;;;;;;;;;18.10;99.90;;;;;;5072408;28;19908;-72
2021/10/25 06:51:06;;;;;;;;;;;18.20;99.90;;;;;;5079280;28;20409;-72
2021/10/25 06:53:32;;;;;;;;;;;18.20;99.90;;;;;;5091885;28;20350;-73
2021/10/25 06:55:59;;;;;;;;;;;18.20;99.90;;;;;;5091927;28;19924;-74
2021/10/25 06:58:26;;;;;;;;;;;18.20;99.90;;;;;;5091895;28;19912;-72
2021/10/25 07:00:57;;;;;;;;;;;18.10;99.90;;;;;;5092290;28;20004;-70
2021/10/25 07:03:25;;;;;;;;;;;18.10;99.90;;;;;;5092222;28;19908;-72
2021/10/25 07:05:52;;;;;;;;;;;18.10;99.90;;;;;;5091808;28;20031;-73
2021/10/25 07:08:19;;;;;;;;;;;18.10;99.90;;;;;;5092816;28;19912;-71
2021/10/25 07:10:46;;;;;;;;;;;18.00;99.90;;;;;;5092632;28;19928;-69
2021/10/25 07:13:12;;;;;;;;;;;18.00;99.90;;;;;;5094225;28;19916;-72
2021/10/25 07:15:47;;;;;;;;;;;17.80;99.90;;;;;;5093957;28;19995;-70
2021/10/25 07:18:21;;;;;;;;;;;;;;;;;;;;;
2021/10/25 08:07:34;;;;;;;;;;;17.10;99.90;;;;;;5073418;28;20468;-73
2021/10/25 08:10:05;;;;;;;;;;;17.10;99.90;;;;;;5093297;28;20248;-72
2021/10/25 08:12:35;;;;;;;;;;;17.10;99.90;;;;;;5093612;28;19954;-73
2021/10/25 08:15:06;;;;;;;;;;;17.10;99.90;;;;;;5092796;28;19908;-73
2021/10/25 08:17:49;;;;;;;;;;;17.00;99.90;;;;;;5093019;28;20266;-72
2021/10/25 08:20:16;;;;;;;;;;;16.90;99.90;;;;;;5073177;28;20390;-73
2021/10/25 08:22:43;;;;;;;;;;;16.90;99.90;;;;;;5072926;28;19961;-74
2021/10/25 08:25:10;;;;;;;;;;;16.80;99.90;;;;;;5072321;28;19917;-71
2021/10/25 08:27:37;;;;;;;;;;;16.80;99.90;;;;;;5073750;28;19928;-74
2021/10/25 08:30:05;;;;;;;;;;;16.80;99.90;;;;;;5073714;28;20367;-75
2021/10/25 08:40:39;;;;;;;;;;;16.80;99.90;;;;;;5080826;28;20321;-74
2021/10/25 08:43:07;;;;;;;;;;;16.70;99.90;;;;;;5092887;28;20252;-74
2021/10/25 08:45:34;;;;;;;;;;;16.70;99.90;;;;;;5091924;28;20363;-72
2021/10/25 08:48:03;;;;;;;;;;;16.70;99.90;;;;;;5092315;28;19912;-75
2021/10/25 08:50:33;;;;;;;;;;;16.70;99.90;;;;;;5092862;28;20414;-72
2021/10/25 08:53:01;;;;;;;;;;;16.70;99.90;;;;;;5092836;28;20291;-74
2021/10/25 08:55:27;;;;;;;;;;;16.60;99.90;;;;;;5092226;28;19908;-73
2021/10/25 08:57:55;;;;;;;;;;;16.60;99.90;;;;;;5092895;28;19943;-73
2021/10/25 09:00:23;;;;;;;;;;;16.60;99.90;;;;;;5093021;28;19908;-74
2021/10/25 09:03:00;;;;;;;;;;;16.60;99.90;;;;;;5092934;28;19913;-73
2021/10/25 09:05:27;;;;;;;;;;;16.70;99.90;;;;;;5094393;28;19908;-73
2021/10/25 09:07:54;;;;;;;;;;;16.70;99.90;;;;;;5093341;28;20322;-73
2021/10/25 09:10:25;;;;;;;;;;;16.70;99.90;;;;;;5092650;28;19916;-72
2021/10/25 09:12:59;;;;;;;;;;;16.70;99.90;;;;;;5092519;28;19997;-74
2021/10/25 09:15:27;;;;;;;;;;;16.70;99.90;;;;;;5091472;28;20271;-74
2021/10/25 09:17:54;;;;;;;;;;;16.60;99.90;;;;;;5092496;28;19916;-72
2021/10/25 09:20:20;;;;;;;;;;;16.70;99.90;;;;;;5092524;28;19908;-73
2021/10/25 09:22:47;;;;;;;;;;;16.60;99.90;;;;;;5093772;28;19908;-73
2021/10/25 09:25:14;;;;;;;;;;;16.70;99.90;;;;;;5093001;28;20617;-73
2021/10/25 09:27:45;;;;;;;;;;;16.70;99.90;;;;;;5091399;28;19977;-73
2021/10/25 09:30:24;;;;;;;;;;;16.60;99.90;;;;;;5090629;28;19912;-75
2021/10/25 09:32:51;;;;;;;;;;;16.70;99.90;;;;;;5092728;28;19908;-74
2021/10/25 09:35:26;;;;;;;;;;;16.70;99.90;;;;;;5093111;28;19912;-75
2021/10/25 09:37:58;;;;;;;;;;;16.60;99.90;;;;;;5096164;28;19912;-72
2021/10/25 09:41:30;;;;;;;;;;;16.60;99.90;;;;;;5097233;28;19908;-74
2021/10/25 09:45:07;;;;;;;;;;;16.60;99.90;;;;;;5088331;28;19997;-73
2021/10/25 09:49:08;;;;;;;;;;;16.50;99.90;;;;;;5096595;28;19919;-74
2021/10/25 09:51:38;;;;;;;;;;;16.50;99.90;;;;;;5096900;28;19908;-74
2021/10/25 09:54:05;;;;;;;;;;;16.40;99.90;;;;;;5096420;28;19908;-74
2021/10/25 09:56:34;;;;;;;;;;;16.50;99.90;;;;;;5096241;28;19927;-74
2021/10/25 10:01:36;;;;;;;;;;;16.50;99.90;;;;;;5095772;28;19995;-74
2021/10/25 10:04:04;;;;;;;;;;;16.50;99.90;;;;;;5096268;28;20006;-74
2021/10/25 10:06:31;;;;;;;;;;;16.50;99.90;;;;;;5096560;28;20373;-74
2021/10/25 10:08:58;;;;;;;;;;;16.50;99.90;;;;;;5097957;28;20267;-72
2021/10/25 10:11:26;;;;;;;;;;;16.50;99.90;;;;;;5096423;28;19908;-72
2021/10/25 10:13:53;;;;;;;;;;;16.50;99.90;;;;;;5095506;28;19931;-75
2021/10/25 10:16:20;;;;;;;;;;;16.60;99.90;;;;;;5095679;28;19908;-73
2021/10/25 10:18:59;;;;;;;;;;;16.60;99.90;;;;;;5096253;28;19919;-73
2021/10/25 10:21:34;;;;;;;;;;;16.60;99.90;;;;;;5095561;28;19908;-73
2021/10/25 10:24:05;;;;;;;;;;;16.50;99.90;;;;;;5096289;28;19908;-72
2021/10/25 10:26:33;;;;;;;;;;;16.50;99.90;;;;;;5096672;28;19912;-74
2021/10/25 10:29:10;;;;;;;;;;;16.40;99.90;;;;;;5095066;28;20077;-75
2021/10/25 10:31:37;;;;;;;;;;;16.50;99.90;;;;;;5094661;28;19915;-73
2021/10/25 10:34:14;;;;;;;;;;;16.50;99.90;;;;;;5095423;28;20459;-71
2021/10/25 10:36:57;;;;;;;;;;;16.40;99.90;;;;;;5095376;28;19919;-72
2021/10/25 10:39:27;;;;;;;;;;;16.40;99.90;;;;;;5095975;28;19909;-71
2021/10/25 10:41:56;;;;;;;;;;;16.40;99.90;;;;;;5097047;28;20359;-73
2021/10/25 10:44:26;;;;;;;;;;;16.30;99.90;;;;;;5095316;28;19908;-74
2021/10/25 10:46:55;;;;;;;;;;;16.30;99.90;;;;;;5093909;28;19952;-74
2021/10/25 10:49:35;;;;;;;;;;;16.20;99.90;;;;;;5094944;28;19908;-72
2021/10/25 12:02:13;;;;;;;;;;;15.90;99.90;;;;;;3110977;28;22030;-77
2021/10/25 12:04:46;;;;;;;;;;;15.90;99.90;;;;;;4974016;28;19918;-80
2021/10/25 12:07:13;;;;;;;;;;;15.90;99.90;;;;;;4974091;28;19979;-80
2021/10/25 12:09:40;;;;;;;;;;;15.90;99.90;;;;;;4974266;28;20009;-80
2021/10/25 12:12:17;;;;;;;;;;;16.00;99.90;;;;;;4973997;28;20009;-81
2021/10/25 12:14:45;;;;;;;;;;;16.00;99.90;;;;;;4974172;28;19917;-77
2021/10/25 12:17:17;;;;;;;;;;;16.00;99.90;;;;;;4974130;28;19969;-80
2021/10/25 12:19:44;;;;;;;;;;;15.90;99.90;;;;;;4971976;28;19911;-76
2021/10/25 12:22:16;;;;;;;;;;;15.90;99.90;;;;;;4973519;28;19917;-80
2021/10/25 12:24:46;;;;;;;;;;;15.90;99.90;;;;;;4973708;28;19910;-83
2021/10/25 12:27:19;;;;;;;;;;;15.90;99.90;;;;;;4973736;28;20283;-82
2021/10/25 12:29:57;;;;;;;;;;;15.80;99.90;;;;;;4974131;28;19918;-83
2021/10/25 12:32:23;;;;;;;;;;;15.90;99.90;;;;;;4973830;28;20000;-81
2021/10/25 12:34:57;;;;;;;;;;;15.90;99.90;;;;;;4973952;28;20373;-70
2021/10/25 12:37:28;;;;;;;;;;;15.90;99.90;;;;;;4973808;28;19922;-71
2021/10/25 12:39:56;;;;;;;;;;;16.00;99.90;;;;;;4973904;28;20055;-78
2021/10/25 12:42:28;;;;;;;;;;;16.00;99.90;;;;;;4973534;28;20033;-79
2021/10/25 12:44:55;;;;;;;;;;;16.10;99.90;;;;;;4973915;28;19917;-81
2021/10/25 12:47:24;;;;;;;;;;;16.00;99.90;;;;;;4973579;28;19910;-79
2021/10/25 12:49:55;;;;;;;;;;;16.10;99.90;;;;;;4973744;28;19910;-82
2021/10/25 12:52:23;;;;;;;;;;;16.10;99.90;;;;;;4973605;28;20317;-82
2021/10/25 12:54:51;;;;;;;;;;;16.10;99.90;;;;;;4973529;28;19911;-81
2021/10/25 12:57:22;;;;;;;;;;;16.10;99.90;;;;;;4973709;28;20288;-81
2021/10/25 13:00:10;;;;;;;;;;;16.20;99.90;;;;;;4973581;28;20000;-82
2021/10/25 13:02:52;;;;;;;;;;;16.20;99.90;;;;;;4973155;28;19915;-82
2021/10/25 13:05:27;;;;;;;;;;;16.30;99.90;;;;;;4973469;28;19962;-82
2021/10/25 13:07:57;;;;;;;;;;;16.30;99.90;;;;;;4973217;28;20393;-81
2021/10/25 13:10:25;;;;;;;;;;;16.30;99.90;;;;;;4975565;28;19981;-79
2021/10/25 13:12:53;;;;;;;;;;;16.30;99.90;;;;;;4979876;28;19910;-80
2021/10/25 13:15:20;;;;;;;;;;;16.30;99.90;;;;;;4979730;28;19910;-79
2021/10/25 13:17:47;;;;;;;;;;;16.30;99.90;;;;;;4979605;28;19918;-81
2021/10/25 13:20:17;;;;;;;;;;;16.30;99.90;;;;;;4979689;28;20399;-80
2021/10/25 13:22:43;;;;;;;;;;;16.30;99.90;;;;;;4980040;28;20001;-80
2021/10/25 13:25:10;;;;;;;;;;;16.30;99.90;;;;;;4979642;28;19910;-79
2021/10/25 13:27:37;;;;;;;;;;;16.20;99.90;;;;;;4979928;28;19926;-78
2021/10/25 13:30:05;;;;;;;;;;;16.30;99.90;;;;;;4979428;28;19910;-79
2021/10/25 13:32:32;;;;;;;;;;;16.30;99.90;;;;;;4979680;28;20435;-80
2021/10/25 13:34:59;;;;;;;;;;;16.30;99.90;;;;;;4979661;28;19958;-81
2021/10/25 13:37:26;;;;;;;;;;;16.50;99.90;;;;;;4979788;28;19965;-79
2021/10/25 13:39:53;;;;;;;;;;;16.70;99.90;;;;;;4979693;28;20296;-79
2021/10/25 13:42:19;;;;;;;;;;;16.70;99.90;;;;;;4979512;28;19957;-81
2021/10/25 13:44:46;;;;;;;;;;;16.70;99.90;;;;;;4979751;28;20349;-79
2021/10/25 13:47:14;;;;;;;;;;;16.70;99.90;;;;;;4979765;28;19960;-78
2021/10/25 13:49:40;;;;;;;;;;;16.80;99.90;;;;;;4979923;28;20323;-81
2021/10/25 13:52:07;;;;;;;;;;;16.90;99.90;;;;;;4979491;28;19915;-76
2021/10/25 13:54:34;;;;;;;;;;;16.90;99.90;;;;;;4979847;28;19976;-80
2021/10/25 13:57:07;;;;;;;;;;;16.80;99.90;;;;;;4979729;28;19980;-78
2021/10/25 13:59:35;;;;;;;;;;;16.60;99.90;;;;;;4979630;28;19910;-79
2021/10/25 14:02:06;;;;;;;;;;;16.70;99.90;;;;;;4979143;28;20431;-81
2021/10/25 14:04:37;;;;;;;;;;;16.80;99.90;;;;;;4979875;28;20016;-77
2021/10/25 14:07:06;;;;;;;;;;;16.80;99.90;;;;;;4979455;28;20420;-80
2021/10/25 14:09:35;;;;;;;;;;;16.80;99.90;;;;;;4979637;28;19914;-76
2021/10/25 14:12:03;;;;;;;;;;;16.80;99.90;;;;;;4979292;28;19911;-76
2021/10/25 14:14:30;;;;;;;;;;;16.70;99.90;;;;;;4979381;28;20004;-79
2021/10/25 14:16:57;;;;;;;;;;;16.60;99.90;;;;;;4979275;28;19918;-82
2021/10/25 14:19:28;;;;;;;;;;;16.50;99.90;;;;;;4979555;28;20308;-82
2021/10/25 14:22:01;;;;;;;;;;;16.50;99.90;;;;;;4977312;28;19933;-82
2021/10/25 14:24:28;;;;;;;;;;;16.40;99.90;;;;;;4976231;28;19910;-80
2021/10/25 14:26:54;;;;;;;;;;;16.40;99.90;;;;;;4976070;28;19956;-83
2021/10/25 14:29:21;;;;;;;;;;;16.20;99.90;;;;;;4976368;28;19910;-82
2021/10/25 14:31:48;;;;;;;;;;;16.10;99.90;;;;;;4958615;28;19945;-82
2021/10/25 14:34:16;;;;;;;;;;;16.10;99.90;;;;;;4975925;28;19910;-81
2021/10/25 14:36:43;;;;;;;;;;;16.00;99.90;;;;;;4975884;28;19914;-81
2021/10/25 14:44:28;;;;;;;;;;;15.80;99.90;;;;;;4976255;28;20344;-83
2021/10/25 14:47:06;;;;;;;;;;;15.80;99.90;;;;;;4976185;28;20333;-81
2021/10/25 14:54:56;;;;;;;;;;;15.50;99.90;;;;;;4975903;28;20051;-81
2021/10/25 14:57:23;;;;;;;;;;;15.50;99.90;;;;;;4976232;28;20325;-80
2021/10/25 14:59:54;;;;;;;;;;;15.50;99.90;;;;;;4975631;28;20320;-79
2021/10/25 15:02:24;;;;;;;;;;;15.50;99.90;;;;;;4975024;28;19921;-80
2021/10/25 15:04:52;;;;;;;;;;;15.40;99.90;;;;;;4975508;28;19911;-79
2021/10/25 15:07:23;;;;;;;;;;;15.30;99.90;;;;;;4975294;28;19922;-77
2021/10/25 15:09:50;;;;;;;;;;;15.30;99.90;;;;;;4975308;28;20273;-79
2021/10/25 15:12:20;;;;;;;;;;;15.30;99.90;;;;;;4974949;28;19924;-77
2021/10/25 15:14:48;;;;;;;;;;;15.30;99.90;;;;;;4975210;28;20021;-78
2021/10/25 15:17:15;;;;;;;;;;;15.20;99.90;;;;;;4975206;28;20418;-80
2021/10/25 15:19:42;;;;;;;;;;;15.20;99.90;;;;;;4975307;28;19977;-81
2021/10/25 15:22:10;;;;;;;;;;;15.20;99.90;;;;;;4975251;28;19953;-74
2021/10/25 15:24:39;;;;;;;;;;;15.20;99.90;;;;;;4975465;28;19910;-79
2021/10/25 15:27:13;;;;;;;;;;;15.20;99.90;;;;;;4975222;28;19945;-81
2021/10/25 15:29:41;;;;;;;;;;;15.30;99.90;;;;;;4975175;28;19917;-81
2021/10/25 15:32:07;;;;;;;;;;;15.30;99.90;;;;;;4974668;28;20000;-78
2021/10/25 15:34:34;;;;;;;;;;;15.30;99.90;;;;;;4975043;28;20391;-78
2021/10/25 15:37:01;;;;;;;;;;;15.30;99.90;;;;;;4975067;28;19918;-76
2021/10/25 15:39:28;;;;;;;;;;;15.40;99.90;;;;;;4974741;28;20386;-74
2021/10/25 15:41:54;;;;;;;;;;;15.40;99.90;;;;;;4974922;28;19921;-81
2021/10/25 15:44:21;;;;;;;;;;;15.40;99.90;;;;;;4974782;28;19921;-77
2021/10/25 15:46:48;;;;;;;;;;;15.40;99.90;;;;;;4974808;28;19969;-78
2021/10/25 15:49:16;;;;;;;;;;;15.30;99.90;;;;;;4975030;28;19910;-78
2021/10/25 15:51:42;;;;;;;;;;;15.30;99.90;;;;;;4974915;28;19911;-80
2021/10/25 15:54:10;;;;;;;;;;;15.20;99.90;;;;;;4974445;28;20029;-79
2021/10/25 15:56:37;;;;;;;;;;;15.20;99.90;;;;;;4974602;28;19918;-77
2021/10/25 15:59:03;;;;;;;;;;;15.20;99.90;;;;;;4974775;28;19910;-76
2021/10/25 16:01:30;;;;;;;;;;;15.10;99.90;;;;;;4974476;28;20005;-76
2021/10/25 16:03:57;;;;;;;;;;;15.10;99.90;;;;;;4974255;28;19967;-79
2021/10/25 16:06:24;;;;;;;;;;;15.10;99.90;;;;;;4974709;28;19910;-82
2021/10/25 16:08:50;;;;;;;;;;;15.10;99.90;;;;;;4974265;28;19993;-79
2021/10/25 16:11:17;;;;;;;;;;;15.10;99.90;;;;;;4974209;28;19910;-79
2021/10/25 16:13:44;;;;;;;;;;;15.20;99.90;;;;;;4974323;28;19953;-77
2021/10/25 16:16:11;;;;;;;;;;;15.10;99.90;;;;;;4973997;28;19914;-82
2021/10/25 16:18:38;;;;;;;;;;;15.10;99.90;;;;;;4957394;28;19914;-76
2021/10/25 16:21:05;;;;;;;;;;;15.10;99.90;;;;;;4974206;28;19911;-80
2021/10/25 16:23:31;;;;;;;;;;;15.10;99.90;;;;;;4974195;28;20423;-76
2021/10/25 16:25:58;;;;;;;;;;;15.10;99.90;;;;;;4974140;28;20038;-76
2021/10/25 16:28:25;;;;;;;;;;;15.10;99.90;;;;;;4974165;28;20419;-80
2021/10/25 16:30:54;;;;;;;;;;;15.10;99.90;;;;;;4973922;28;19910;-77
2021/10/25 16:33:21;;;;;;;;;;;15.10;99.90;;;;;;4974073;28;20001;-77
2021/10/25 16:35:48;;;;;;;;;;;15.10;99.90;;;;;;4973874;28;20001;-78
2021/10/25 16:38:14;;;;;;;;;;;15.10;99.90;;;;;;4973731;28;19954;-80
2021/10/25 16:40:44;;;;;;;;;;;15.10;99.90;;;;;;4973847;28;19910;-80
2021/10/25 16:43:10;;;;;;;;;;;15.00;99.90;;;;;;4974019;28;19910;-81
2021/10/25 16:45:39;;;;;;;;;;;15.00;99.90;;;;;;4973489;28;19970;-81
2021/10/25 16:48:06;;;;;;;;;;;15.00;99.90;;;;;;4973493;28;19918;-82
2021/10/25 16:50:35;;;;;;;;;;;15.00;99.90;;;;;;4973760;28;20284;-82
2021/10/25 16:53:32;;;;;;;;;;;14.90;99.90;;;;;;4973713;28;19914;-81
2021/10/25 16:56:00;;;;;;;;;;;14.90;99.90;;;;;;4972580;28;20312;-82
2021/10/25 17:04:11;;;;;;;;;;;14.70;99.90;;;;;;4973728;28;19945;-83
2021/10/25 17:09:29;;;;;;;;;;;14.80;99.90;;;;;;4974222;28;19949;-83
2021/10/25 17:11:56;;;;;;;;;;;14.70;99.90;;;;;;4973892;28;19915;-81
2021/10/25 17:14:24;;;;;;;;;;;14.70;99.90;;;;;;4974031;28;19910;-77
2021/10/25 17:16:51;;;;;;;;;;;14.70;99.90;;;;;;4973428;28;19926;-82
2021/10/25 17:19:19;;;;;;;;;;;14.70;99.90;;;;;;4973652;28;20385;-81
2021/10/25 17:21:46;;;;;;;;;;;14.70;99.90;;;;;;4973570;28;19914;-82
2021/10/25 17:24:14;;;;;;;;;;;14.70;99.90;;;;;;4972876;28;20005;-82
2021/10/25 17:26:42;;;;;;;;;;;14.70;99.90;;;;;;4973254;28;20272;-83
2021/10/25 17:29:09;;;;;;;;;;;14.70;99.90;;;;;;4973193;28;19917;-82
2021/10/25 17:31:39;;;;;;;;;;;14.60;99.90;;;;;;4973210;28;20001;-82
2021/10/25 17:34:06;;;;;;;;;;;14.60;99.90;;;;;;4973084;28;20352;-78
2021/10/25 17:36:33;;;;;;;;;;;14.60;99.90;;;;;;4972944;28;19918;-81
2021/10/25 17:39:00;;;;;;;;;;;14.60;99.90;;;;;;4973283;28;20331;-82